createdAt,value
2022-12-05T00:01:42.848Z,8.26
2022-12-05T00:04:12.758Z,8.28
2022-12-05T00:06:41.620Z,8.28
2022-12-05T00:09:11.099Z,8.34
2022-12-05T00:11:41.010Z,8.33
2022-12-05T00:14:10.574Z,8.33
2022-12-05T00:16:39.629Z,8.34
2022-12-05T00:19:09.335Z,8.34
2022-12-05T00:21:37.803Z,8.32
2022-12-05T00:24:07.748Z,8.32
2022-12-05T00:26:35.585Z,8.33
2022-12-05T00:29:03.139Z,8.30
2022-12-05T00:31:32.118Z,8.25
2022-12-05T00:34:01.683Z,8.26
2022-12-05T00:36:31.802Z,8.20
2022-12-05T00:39:01.298Z,8.30
2022-12-05T00:41:29.995Z,8.29
2022-12-05T00:44:00.119Z,8.39
2022-12-05T00:46:29.585Z,8.30
2022-12-05T00:49:00.015Z,8.31
2022-12-05T00:51:30.137Z,8.38
2022-12-05T00:53:59.791Z,8.39
2022-12-05T00:56:28.770Z,8.41
2022-12-05T00:58:58.322Z,8.37
2022-12-05T01:01:28.501Z,8.37
2022-12-05T01:03:59.418Z,8.37
2022-12-05T01:06:27.913Z,8.23
2022-12-05T01:08:56.408Z,8.21
2022-12-05T01:11:25.338Z,8.17
2022-12-05T01:13:53.961Z,8.20
2022-12-05T01:16:23.387Z,8.27
2022-12-05T01:18:50.921Z,8.24
2022-12-05T01:21:20.758Z,8.24
2022-12-05T01:23:48.650Z,8.26
2022-12-05T01:26:18.481Z,8.28
2022-12-05T01:28:46.584Z,8.25
2022-12-05T01:31:17.968Z,8.27
2022-12-05T01:33:45.647Z,8.26
2022-12-05T01:36:13.474Z,8.25
2022-12-05T01:38:43.736Z,8.25
2022-12-05T01:41:16.040Z,8.18
2022-12-05T01:44:01.877Z,8.19
2022-12-05T01:46:31.951Z,8.22
2022-12-05T01:49:04.476Z,8.16
2022-12-05T01:51:34.671Z,8.24
2022-12-05T01:54:05.796Z,8.23
2022-12-05T01:56:34.600Z,8.20
2022-12-05T01:59:03.495Z,8.19
2022-12-05T02:01:31.032Z,8.26
2022-12-05T02:03:59.869Z,8.27
2022-12-05T02:06:28.470Z,8.29
2022-12-05T02:08:56.368Z,8.28
2022-12-05T02:11:29.817Z,8.30
2022-12-05T02:14:12.578Z,8.28
2022-12-05T02:16:50.178Z,8.22
2022-12-05T02:19:45.914Z,8.30
2022-12-05T02:22:32.439Z,8.27
2022-12-05T02:25:18.630Z,8.19
2022-12-05T02:28:10.309Z,8.13
2022-12-05T02:30:42.574Z,8.12
2022-12-05T02:33:20.921Z,8.12
2022-12-05T02:35:57.655Z,8.09
2022-12-05T02:38:31.041Z,8.09
2022-12-05T02:41:06.715Z,8.07
2022-12-05T02:43:40.856Z,8.15
2022-12-05T02:46:14.013Z,8.09
2022-12-05T02:48:44.213Z,8.11
2022-12-05T02:51:15.647Z,8.09
2022-12-05T02:53:45.139Z,8.14
2022-12-05T02:56:13.634Z,8.11
2022-12-05T02:58:46.764Z,8.04
2022-12-05T03:01:16.178Z,7.99
2022-12-05T03:03:44.359Z,8.11
2022-12-05T03:06:15.566Z,8.19
2022-12-05T03:08:46.498Z,8.08
2022-12-05T03:11:15.446Z,8.01
2022-12-05T03:13:50.549Z,8.06
2022-12-05T03:16:24.854Z,8.03
2022-12-05T03:18:57.297Z,8.07
2022-12-05T03:21:32.604Z,8.07
2022-12-05T03:24:06.549Z,8.05
2022-12-05T03:26:43.862Z,8.09
2022-12-05T03:29:22.012Z,8.08
2022-12-05T03:32:00.224Z,8.14
2022-12-05T03:34:38.359Z,8.14
2022-12-05T03:37:11.287Z,8.04
2022-12-05T03:39:41.854Z,8.07
2022-12-05T03:42:14.152Z,8.10
2022-12-05T03:44:48.562Z,8.08
2022-12-05T03:47:21.085Z,8.16
2022-12-05T03:49:52.299Z,8.18
2022-12-05T03:52:26.178Z,8.13
2022-12-05T03:54:57.136Z,8.06
2022-12-05T03:57:29.697Z,8.02
2022-12-05T04:00:02.229Z,8.19
2022-12-05T04:02:34.486Z,8.13
2022-12-05T04:05:07.390Z,8.12
2022-12-05T04:07:39.681Z,8.10
2022-12-05T04:10:13.637Z,8.18
2022-12-05T04:12:44.616Z,8.11
2022-12-05T04:15:49.521Z,8.09
2022-12-05T04:18:20.446Z,8.19
2022-12-05T04:21:16.293Z,8.18
2022-12-05T04:23:47.750Z,8.13
2022-12-05T04:26:23.877Z,8.18
2022-12-05T04:28:58.886Z,8.19
2022-12-05T04:31:31.370Z,8.25
2022-12-05T04:34:05.180Z,8.23
2022-12-05T04:36:36.513Z,8.14
2022-12-05T04:39:14.480Z,8.18
2022-12-05T04:41:51.588Z,8.24
2022-12-05T04:44:23.922Z,8.05
2022-12-05T04:46:54.420Z,8.21
2022-12-05T04:49:27.003Z,8.06
2022-12-05T04:51:58.368Z,8.09
2022-12-05T04:54:30.295Z,8.03
2022-12-05T04:57:06.003Z,7.98
2022-12-05T04:59:33.604Z,8.01
2022-12-05T05:02:07.770Z,8.08
2022-12-05T05:04:39.129Z,8.10
2022-12-05T05:07:08.984Z,8.04
2022-12-05T05:09:36.999Z,8.02
2022-12-05T05:12:05.696Z,8.02
2022-12-05T05:14:33.323Z,8.02
2022-12-05T05:17:00.880Z,7.95
2022-12-05T05:19:28.581Z,7.93
2022-12-05T05:21:57.453Z,7.89
2022-12-05T05:24:26.269Z,7.98
2022-12-05T05:26:57.495Z,7.90
2022-12-05T05:29:25.391Z,7.90
2022-12-05T05:31:52.875Z,8.09
2022-12-05T05:34:20.368Z,8.06
2022-12-05T05:36:52.871Z,8.00
2022-12-05T05:39:22.823Z,7.97
2022-12-05T05:41:50.294Z,8.06
2022-12-05T05:44:17.779Z,8.05
2022-12-05T05:46:45.364Z,8.04
2022-12-05T05:49:12.971Z,8.11
2022-12-05T05:51:40.427Z,8.11
2022-12-05T05:54:07.908Z,8.04
2022-12-05T05:56:36.679Z,7.97
2022-12-05T05:59:04.815Z,7.98
2022-12-05T06:01:32.565Z,8.07
2022-12-05T06:04:00.668Z,8.09
2022-12-05T06:06:28.475Z,8.14
2022-12-05T06:08:55.994Z,8.16
2022-12-05T06:11:26.710Z,8.09
2022-12-05T06:13:56.948Z,8.18
2022-12-05T06:16:25.487Z,8.19
2022-12-05T06:18:53.757Z,8.16
2022-12-05T06:21:21.613Z,8.23
2022-12-05T06:23:49.290Z,8.17
2022-12-05T06:26:19.382Z,8.06
2022-12-05T06:28:48.187Z,8.12
2022-12-05T06:31:19.198Z,8.04
2022-12-05T06:33:46.847Z,8.09
2022-12-05T06:36:16.939Z,8.13
2022-12-05T06:38:44.925Z,7.99
2022-12-05T06:41:16.155Z,8.22
2022-12-05T06:43:43.851Z,8.13
2022-12-05T06:46:13.094Z,8.14
2022-12-05T06:48:42.151Z,8.10
2022-12-05T06:51:10.646Z,8.16
2022-12-05T06:53:38.422Z,8.17
2022-12-05T06:56:08.394Z,8.10
2022-12-05T06:58:35.848Z,7.96
2022-12-05T07:01:21.262Z,7.99
2022-12-05T07:03:50.629Z,8.09
2022-12-05T07:06:18.472Z,8.02
2022-12-05T07:08:46.254Z,8.13
2022-12-05T07:11:13.784Z,8.06
2022-12-05T07:13:41.359Z,8.21
2022-12-05T07:16:09.087Z,8.25
2022-12-05T07:18:37.450Z,8.25
2022-12-05T07:21:12.820Z,8.24
2022-12-05T07:23:41.322Z,8.13
2022-12-05T07:26:11.108Z,8.09
2022-12-05T07:28:38.625Z,8.13
2022-12-05T07:31:07.879Z,8.18
2022-12-05T07:33:35.978Z,8.18
2022-12-05T07:36:04.466Z,8.13
2022-12-05T07:38:34.120Z,8.08
2022-12-05T07:41:10.216Z,8.14
2022-12-05T07:43:40.588Z,8.13
2022-12-05T07:46:09.180Z,8.25
2022-12-05T07:48:38.450Z,8.15
2022-12-05T07:51:08.029Z,8.01
2022-12-05T07:53:37.530Z,7.92
2022-12-05T07:56:07.429Z,8.04
2022-12-05T07:58:36.025Z,8.15
2022-12-05T08:01:07.987Z,8.18
2022-12-05T08:03:35.696Z,8.14
2022-12-05T08:06:04.388Z,8.22
2022-12-05T08:08:31.958Z,8.28
2022-12-05T08:11:06.124Z,8.48
2022-12-05T08:13:34.042Z,8.44
2022-12-05T08:16:03.245Z,8.44
2022-12-05T08:18:31.166Z,8.37
2022-12-05T08:21:03.255Z,8.32
2022-12-05T08:23:31.811Z,8.36
2022-12-05T08:26:02.819Z,8.39
2022-12-05T08:28:32.083Z,8.41
2022-12-05T08:31:04.883Z,8.36
2022-12-05T08:33:32.464Z,8.36
2022-12-05T08:36:01.612Z,8.34
2022-12-05T08:38:29.207Z,8.45
2022-12-05T08:40:56.733Z,8.50
2022-12-05T08:43:24.236Z,8.46
2022-12-05T08:45:54.106Z,8.57
2022-12-05T08:48:27.528Z,8.61
2022-12-05T08:50:56.902Z,8.55
2022-12-05T08:53:24.455Z,8.68
2022-12-05T08:55:51.954Z,8.62
2022-12-05T08:58:19.486Z,8.63
2022-12-05T09:00:47.000Z,8.65
2022-12-05T09:03:15.793Z,8.66
2022-12-05T09:05:43.326Z,8.68
2022-12-05T09:08:10.849Z,8.60
2022-12-05T09:10:38.473Z,8.66
2022-12-05T09:13:05.982Z,8.60
2022-12-05T09:15:33.533Z,8.54
2022-12-05T09:18:01.623Z,8.70
2022-12-05T09:20:30.317Z,8.71
2022-12-05T09:22:57.892Z,8.75
2022-12-05T09:25:25.373Z,8.62
2022-12-05T09:27:54.712Z,8.57
2022-12-05T09:30:22.202Z,8.58
2022-12-05T09:32:49.813Z,8.60
2022-12-05T09:35:17.310Z,8.66
2022-12-05T09:37:46.113Z,8.63
2022-12-05T09:40:17.040Z,8.62
2022-12-05T09:42:57.351Z,8.65
2022-12-05T09:45:29.742Z,8.61
2022-12-05T09:48:01.807Z,8.59
2022-12-05T09:50:31.493Z,8.68
2022-12-05T09:53:12.643Z,8.67
2022-12-05T09:55:47.473Z,8.66
2022-12-05T09:58:22.280Z,8.64
2022-12-05T10:00:52.812Z,8.73
2022-12-05T10:03:27.063Z,8.68
2022-12-05T10:06:03.878Z,8.71
2022-12-05T10:08:42.811Z,8.72
2022-12-05T10:11:18.936Z,8.75
2022-12-05T10:13:53.595Z,8.81
2022-12-05T10:16:30.465Z,8.87
2022-12-05T10:19:01.886Z,8.86
2022-12-05T10:21:34.796Z,8.83
2022-12-05T10:24:06.786Z,8.90
2022-12-05T10:26:38.034Z,8.86
2022-12-05T10:29:20.004Z,8.99
2022-12-05T10:31:49.663Z,8.87
2022-12-05T10:34:30.649Z,8.77
2022-12-05T10:37:03.112Z,8.80
2022-12-05T10:39:31.943Z,8.69
2022-12-05T10:42:00.206Z,8.68
2022-12-05T10:44:27.783Z,8.69
2022-12-05T10:46:55.322Z,8.77
2022-12-05T10:49:24.447Z,8.57
2022-12-05T10:51:52.465Z,8.46
2022-12-05T10:54:23.567Z,8.43
2022-12-05T10:56:54.467Z,8.54
2022-12-05T10:59:24.094Z,8.49
2022-12-05T11:01:54.934Z,8.53
2022-12-05T11:04:27.712Z,8.49
2022-12-05T11:06:59.415Z,8.44
2022-12-05T11:09:29.653Z,8.47
2022-12-05T11:12:19.873Z,8.44
2022-12-05T11:15:06.287Z,8.40
2022-12-05T11:17:36.778Z,8.31
2022-12-05T11:20:27.095Z,8.45
2022-12-05T11:22:59.310Z,8.41
2022-12-05T11:25:31.918Z,8.33
2022-12-05T11:28:02.349Z,8.36
2022-12-05T11:30:30.857Z,8.32
2022-12-05T11:33:13.185Z,8.33
2022-12-05T11:35:41.730Z,8.29
2022-12-05T11:38:13.229Z,8.28
2022-12-05T11:40:49.379Z,8.34
2022-12-05T11:43:48.343Z,8.34
2022-12-05T11:46:29.161Z,8.30
2022-12-05T11:49:21.910Z,8.34
2022-12-05T11:51:57.708Z,8.40
2022-12-05T11:58:15.887Z,8.44
2022-12-05T12:00:57.574Z,8.56
2022-12-05T12:04:00.559Z,8.54
2022-12-05T12:06:32.662Z,8.43
2022-12-05T12:09:20.607Z,8.54
2022-12-05T12:11:55.825Z,8.55
2022-12-05T12:14:29.746Z,8.41
2022-12-05T12:17:08.766Z,8.39
2022-12-05T12:19:52.342Z,8.35
2022-12-05T12:22:35.848Z,8.28
2022-12-05T12:25:20.736Z,8.20
2022-12-05T12:28:05.166Z,7.90
2022-12-05T12:30:46.488Z,8.01
2022-12-05T12:33:27.000Z,8.07
2022-12-05T12:36:00.034Z,8.24
2022-12-05T12:38:51.660Z,8.20
2022-12-05T12:41:37.479Z,8.22
2022-12-05T12:44:24.702Z,8.31
2022-12-05T12:46:57.463Z,8.27
2022-12-05T12:49:40.962Z,8.27
2022-12-05T12:52:15.204Z,8.22
2022-12-05T12:55:11.556Z,8.27
2022-12-05T12:57:58.967Z,8.30
2022-12-05T13:00:39.143Z,8.29
2022-12-05T13:03:13.864Z,8.34
2022-12-05T13:05:46.907Z,8.30
2022-12-05T13:08:22.629Z,8.28
2022-12-05T13:10:50.803Z,8.26
2022-12-05T13:13:21.514Z,8.29
2022-12-05T13:15:52.510Z,8.30
2022-12-05T13:18:22.335Z,8.52
2022-12-05T13:20:53.575Z,8.37
2022-12-05T13:23:24.793Z,8.37
2022-12-05T13:25:54.701Z,8.51
2022-12-05T13:28:28.592Z,8.41
2022-12-05T13:31:01.277Z,8.38
2022-12-05T13:33:33.216Z,8.29
2022-12-05T13:36:25.352Z,8.25
2022-12-05T13:39:16.266Z,8.31
2022-12-05T13:42:03.612Z,8.30
2022-12-05T13:44:36.216Z,8.28
2022-12-05T13:47:07.448Z,8.22
2022-12-05T13:49:44.490Z,8.28
2022-12-05T13:52:18.539Z,8.31
2022-12-05T13:54:52.969Z,8.37
2022-12-05T13:57:46.763Z,8.21
2022-12-05T14:00:32.714Z,8.11
2022-12-05T14:03:07.642Z,8.28
2022-12-05T14:05:42.072Z,8.24
2022-12-05T14:08:45.964Z,8.24
2022-12-05T14:11:13.499Z,8.03
2022-12-05T14:13:45.915Z,8.06
2022-12-05T14:16:47.201Z,8.16
2022-12-05T14:19:34.419Z,8.12
2022-12-05T14:22:19.603Z,8.05
2022-12-05T14:24:58.342Z,7.96
2022-12-05T14:27:43.202Z,7.96
2022-12-05T14:30:23.698Z,7.88
2022-12-05T14:32:53.706Z,7.95
2022-12-05T14:35:29.577Z,8.01
2022-12-05T14:37:59.981Z,7.98
2022-12-05T14:40:33.253Z,8.06
2022-12-05T14:43:03.944Z,8.00
2022-12-05T14:45:35.749Z,8.03
2022-12-05T14:48:06.474Z,8.13
2022-12-05T14:50:43.315Z,8.01
2022-12-05T14:53:31.277Z,7.97
2022-12-05T14:56:10.191Z,7.98
2022-12-05T14:58:44.343Z,7.96
2022-12-05T15:01:18.127Z,8.05
2022-12-05T15:04:01.661Z,7.95
2022-12-05T15:06:31.211Z,7.84
2022-12-05T15:09:28.714Z,7.90
2022-12-05T15:11:49.640Z,7.69
2022-12-05T15:14:22.140Z,7.85
2022-12-05T15:16:53.325Z,7.72
2022-12-05T15:19:29.858Z,7.83
2022-12-05T15:22:03.312Z,7.66
2022-12-05T15:24:38.229Z,7.67
2022-12-05T15:27:07.482Z,7.74
2022-12-05T15:29:36.088Z,7.84
2022-12-05T15:32:06.390Z,7.69
2022-12-05T15:34:38.061Z,7.83
2022-12-05T15:37:13.944Z,7.72
2022-12-05T15:39:57.467Z,7.83
2022-12-05T15:42:29.897Z,7.77
2022-12-05T15:45:16.446Z,7.75
2022-12-05T15:47:45.484Z,7.71
2022-12-05T15:50:14.530Z,7.69
2022-12-05T15:52:48.386Z,7.86
2022-12-05T15:55:23.150Z,7.76
2022-12-05T15:57:55.768Z,7.72
2022-12-05T16:00:25.989Z,7.66
2022-12-05T16:02:59.278Z,7.59
2022-12-05T16:05:34.263Z,7.67
2022-12-05T16:08:06.005Z,7.65
2022-12-05T16:10:35.994Z,7.58
2022-12-05T16:13:06.248Z,7.43
2022-12-05T16:15:34.749Z,7.42
2022-12-05T16:18:04.252Z,7.44
2022-12-05T16:20:33.564Z,7.49
2022-12-05T16:23:05.842Z,7.47
2022-12-05T16:25:34.861Z,7.51
2022-12-05T16:28:16.259Z,7.47
2022-12-05T16:30:56.368Z,7.43
2022-12-05T16:33:23.928Z,7.49
2022-12-05T16:35:51.522Z,7.43
2022-12-05T16:38:23.665Z,7.53
2022-12-05T16:40:57.240Z,7.48
2022-12-05T16:43:42.060Z,7.48
2022-12-05T16:46:41.844Z,7.44
2022-12-05T16:49:33.349Z,7.53
2022-12-05T16:52:03.471Z,7.51
2022-12-05T16:54:32.357Z,7.48
2022-12-05T16:57:01.333Z,7.63
2022-12-05T16:59:32.890Z,7.61
2022-12-05T17:02:01.805Z,7.59
2022-12-05T17:04:29.737Z,7.43
2022-12-05T17:06:57.350Z,7.44
2022-12-05T17:09:24.823Z,7.60
2022-12-05T17:12:04.118Z,7.60
2022-12-05T17:14:31.622Z,7.51
2022-12-05T17:17:00.279Z,7.57
2022-12-05T17:19:31.765Z,7.46
2022-12-05T17:21:59.295Z,7.54
2022-12-05T17:24:28.354Z,7.47
2022-12-05T17:26:57.174Z,7.49
2022-12-05T17:29:24.642Z,7.31
2022-12-05T17:31:52.178Z,7.47
2022-12-05T17:34:19.694Z,7.56
2022-12-05T17:36:47.288Z,7.50
2022-12-05T17:39:14.754Z,7.65
2022-12-05T17:41:42.263Z,7.47
2022-12-05T17:44:14.590Z,7.58
2022-12-05T17:46:42.513Z,7.45
2022-12-05T17:49:13.320Z,7.44
2022-12-05T17:52:05.607Z,7.41
2022-12-05T17:54:28.718Z,7.50
2022-12-05T17:56:56.191Z,7.48
2022-12-05T17:59:24.973Z,7.26
2022-12-05T18:01:52.422Z,7.25
2022-12-05T18:04:23.164Z,7.34
2022-12-05T18:06:51.389Z,7.32
2022-12-05T18:09:19.372Z,7.36
2022-12-05T18:11:46.865Z,7.24
2022-12-05T18:14:14.328Z,7.26
2022-12-05T18:16:43.196Z,7.16
2022-12-05T18:19:10.773Z,7.23
2022-12-05T18:21:39.051Z,7.20
2022-12-05T18:24:06.889Z,7.19
2022-12-05T18:26:34.362Z,7.14
2022-12-05T18:29:01.865Z,6.97
2022-12-05T18:31:30.850Z,7.23
2022-12-05T18:33:59.787Z,7.19
2022-12-05T18:36:27.440Z,7.22
2022-12-05T18:38:56.864Z,7.24
2022-12-05T18:41:26.597Z,7.21
2022-12-05T18:43:54.483Z,7.20
2022-12-05T18:46:22.072Z,7.18
2022-12-05T18:48:49.811Z,6.96
2022-12-05T18:51:21.193Z,6.88
2022-12-05T18:53:52.847Z,6.95
2022-12-05T18:56:25.116Z,6.82
2022-12-05T18:58:57.785Z,6.93
2022-12-05T19:01:26.205Z,6.96
2022-12-05T19:03:54.238Z,6.99
2022-12-05T19:06:25.519Z,7.06
2022-12-05T19:08:55.248Z,6.97
2022-12-05T19:11:23.342Z,7.00
2022-12-05T19:13:50.761Z,6.92
2022-12-05T19:16:18.471Z,6.85
2022-12-05T19:18:46.749Z,6.86
2022-12-05T19:21:18.534Z,6.87
2022-12-05T19:23:47.418Z,6.95
2022-12-05T19:26:14.905Z,6.96
2022-12-05T19:28:42.443Z,6.91
2022-12-05T19:31:11.873Z,6.96
2022-12-05T19:33:41.413Z,6.87
2022-12-05T19:36:11.504Z,6.93
2022-12-05T19:38:40.884Z,6.98
2022-12-05T19:41:12.316Z,7.04
2022-12-05T19:43:40.268Z,6.90
2022-12-05T19:46:09.807Z,6.89
2022-12-05T19:48:37.848Z,6.92
2022-12-05T19:51:05.668Z,6.94
2022-12-05T19:53:35.939Z,6.88
2022-12-05T19:56:06.124Z,6.88
2022-12-05T19:58:35.897Z,6.93
2022-12-05T20:01:10.854Z,6.87
2022-12-05T20:03:39.012Z,6.92
2022-12-05T20:06:07.579Z,6.90
2022-12-05T20:08:35.937Z,6.86
2022-12-05T20:11:08.344Z,6.84
2022-12-05T20:13:46.564Z,6.80
2022-12-05T20:16:16.807Z,6.76
2022-12-05T20:18:44.350Z,6.74
2022-12-05T20:21:13.753Z,6.77
2022-12-05T20:23:41.486Z,6.87
2022-12-05T20:26:11.143Z,6.84
2022-12-05T20:28:40.410Z,6.80
2022-12-05T20:31:09.211Z,6.75
2022-12-05T20:33:37.940Z,6.67
2022-12-05T20:36:08.023Z,6.71
2022-12-05T20:38:36.222Z,6.45
2022-12-05T20:41:05.908Z,6.39
2022-12-05T20:43:33.773Z,6.39
2022-12-05T20:46:07.404Z,6.56
2022-12-05T20:48:35.735Z,6.53
2022-12-05T20:51:07.250Z,6.66
2022-12-05T20:53:36.108Z,6.54
2022-12-05T20:56:05.149Z,6.66
2022-12-05T20:58:32.711Z,6.97
2022-12-05T21:01:00.517Z,6.83
2022-12-05T21:03:29.804Z,6.64
2022-12-05T21:05:57.300Z,6.75
2022-12-05T21:08:24.898Z,6.73
2022-12-05T21:10:53.582Z,6.90
2022-12-05T21:13:21.494Z,6.94
2022-12-05T21:15:49.041Z,6.76
2022-12-05T21:18:16.547Z,6.66
2022-12-05T21:20:45.378Z,6.80
2022-12-05T21:23:12.864Z,6.68
2022-12-05T21:25:40.352Z,6.80
2022-12-05T21:28:07.829Z,6.56
2022-12-05T21:30:35.443Z,6.45
2022-12-05T21:33:05.388Z,6.38
2022-12-05T21:35:32.955Z,6.22
2022-12-05T21:38:02.685Z,6.31
2022-12-05T21:40:30.198Z,6.30
2022-12-05T21:42:57.674Z,6.12
2022-12-05T21:45:25.188Z,6.10
2022-12-05T21:47:52.832Z,6.16
2022-12-05T21:50:20.284Z,6.12
2022-12-05T21:52:47.848Z,6.18
2022-12-05T21:55:16.813Z,6.09
2022-12-05T21:57:44.920Z,6.02
2022-12-05T22:00:12.597Z,6.30
2022-12-05T22:02:40.356Z,6.25
2022-12-05T22:05:08.511Z,6.29
2022-12-05T22:07:36.018Z,6.11
2022-12-05T22:10:03.676Z,6.24
2022-12-05T22:12:34.191Z,6.33
2022-12-05T22:15:02.132Z,6.39
2022-12-05T22:17:29.624Z,6.36
2022-12-05T22:19:57.673Z,6.27
2022-12-05T22:22:25.485Z,6.25
2022-12-05T22:24:52.983Z,6.20
2022-12-05T22:27:20.456Z,6.19
2022-12-05T22:29:52.734Z,6.15
2022-12-05T22:32:20.467Z,6.17
2022-12-05T22:34:48.060Z,6.24
2022-12-05T22:37:15.531Z,6.28
2022-12-05T22:39:43.061Z,6.20
2022-12-05T22:42:10.642Z,6.04
2022-12-05T22:44:38.100Z,6.05
2022-12-05T22:47:06.981Z,6.16
2022-12-05T22:49:34.454Z,6.18
2022-12-05T22:52:01.916Z,6.19
2022-12-05T22:54:30.447Z,6.11
2022-12-05T22:56:59.042Z,6.13
2022-12-05T22:59:26.569Z,6.07
2022-12-05T23:01:54.041Z,6.21
2022-12-05T23:04:23.110Z,6.30
2022-12-05T23:06:50.830Z,6.33
2022-12-05T23:09:18.392Z,6.17
2022-12-05T23:11:45.997Z,5.99
2022-12-05T23:14:13.579Z,6.00
2022-12-05T23:16:41.206Z,5.92
2022-12-05T23:19:09.192Z,5.95
2022-12-05T23:21:40.127Z,6.01
2022-12-05T23:24:09.636Z,6.07
2022-12-05T23:26:39.209Z,6.11
2022-12-05T23:29:07.242Z,5.91
2022-12-05T23:31:34.733Z,5.87
2022-12-05T23:34:03.935Z,5.84
2022-12-05T23:36:32.018Z,5.78
2022-12-05T23:39:01.739Z,5.87
2022-12-05T23:41:29.589Z,5.96
2022-12-05T23:43:57.731Z,5.92
2022-12-05T23:46:26.555Z,6.04
2022-12-05T23:48:55.103Z,6.05
2022-12-05T23:51:24.734Z,6.12
2022-12-05T23:53:54.536Z,6.17
2022-12-05T23:56:25.448Z,6.14
2022-12-05T23:58:53.965Z,6.17
